createdAt,value
2018-09-12T00:00:30.747Z,16.74
2018-09-12T00:02:59.864Z,16.73
2018-09-12T00:05:28.990Z,16.70
2018-09-12T00:07:58.118Z,16.69
2018-09-12T00:10:27.249Z,16.67
2018-09-12T00:12:56.373Z,16.66
2018-09-12T00:15:25.694Z,16.62
2018-09-12T00:17:54.832Z,16.53
2018-09-12T00:20:23.997Z,16.52
2018-09-12T00:22:53.150Z,16.49
2018-09-12T00:25:22.258Z,16.42
2018-09-12T00:27:51.398Z,16.34
2018-09-12T00:30:20.572Z,16.32
2018-09-12T00:32:49.696Z,16.25
2018-09-12T00:35:18.850Z,16.21
2018-09-12T00:37:48.025Z,16.14
2018-09-12T00:40:17.378Z,16.06
2018-09-12T00:42:46.541Z,16.02
2018-09-12T00:45:15.699Z,16.01
2018-09-12T00:47:44.822Z,16.01
2018-09-12T00:50:13.946Z,16.00
2018-09-12T00:52:43.082Z,15.97
2018-09-12T00:55:12.362Z,15.92
2018-09-12T00:57:41.562Z,15.92
2018-09-12T01:00:10.945Z,15.93
2018-09-12T01:02:40.126Z,15.82
2018-09-12T01:05:09.496Z,15.75
2018-09-12T01:07:38.782Z,15.75
2018-09-12T01:10:07.952Z,15.75
2018-09-12T01:12:37.101Z,15.70
2018-09-12T01:15:08.001Z,15.59
2018-09-12T01:17:37.140Z,15.56
2018-09-12T01:20:06.336Z,15.54
2018-09-12T01:22:35.487Z,15.50
2018-09-12T01:25:04.709Z,15.48
2018-09-12T01:27:33.876Z,15.44
2018-09-12T01:30:03.316Z,15.35
2018-09-12T01:32:32.692Z,15.33
2018-09-12T01:35:01.853Z,15.29
2018-09-12T01:37:31.000Z,15.27
2018-09-12T01:40:00.130Z,15.24
2018-09-12T01:42:29.264Z,15.21
2018-09-12T01:44:58.507Z,15.14
2018-09-12T01:47:27.624Z,15.11
2018-09-12T01:49:56.773Z,15.03
2018-09-12T01:52:25.926Z,15.00
2018-09-12T01:54:55.076Z,14.99
2018-09-12T01:57:24.262Z,14.97
2018-09-12T01:59:53.470Z,14.97
2018-09-12T02:02:22.637Z,14.96
2018-09-12T02:04:51.759Z,14.91
2018-09-12T02:07:21.027Z,14.87
2018-09-12T02:09:50.193Z,14.76
2018-09-12T02:12:19.331Z,14.65
2018-09-12T02:14:49.255Z,14.55
2018-09-12T02:17:18.505Z,14.47
2018-09-12T02:19:47.616Z,14.47
2018-09-12T02:22:16.765Z,14.46
2018-09-12T02:24:45.900Z,14.46
2018-09-12T02:27:15.024Z,14.47
2018-09-12T02:29:44.201Z,14.48
2018-09-12T02:32:13.334Z,14.47
2018-09-12T02:34:42.521Z,14.45
2018-09-12T02:37:12.385Z,14.42
2018-09-12T02:39:41.929Z,14.43
2018-09-12T02:42:11.118Z,14.42
2018-09-12T02:44:40.328Z,14.40
2018-09-12T02:47:14.699Z,14.34
2018-09-12T02:49:44.629Z,14.28
2018-09-12T02:52:13.858Z,14.19
2018-09-12T02:54:43.133Z,14.17
2018-09-12T02:57:12.414Z,14.12
2018-09-12T02:59:41.661Z,14.10
2018-09-12T03:02:11.284Z,14.08
2018-09-12T03:04:40.530Z,14.08
2018-09-12T03:07:09.772Z,14.04
2018-09-12T03:09:38.960Z,13.98
2018-09-12T03:12:08.090Z,13.97
2018-09-12T03:14:37.242Z,13.94
2018-09-12T03:17:06.456Z,13.88
2018-09-12T03:19:35.705Z,13.87
2018-09-12T03:22:05.012Z,13.90
2018-09-12T03:24:34.428Z,13.95
2018-09-12T03:27:03.656Z,13.98
2018-09-12T03:29:32.868Z,14.02
2018-09-12T03:32:02.348Z,14.06
2018-09-12T03:34:31.489Z,14.08
2018-09-12T03:37:01.051Z,14.08
2018-09-12T03:39:30.182Z,14.06
2018-09-12T03:41:59.384Z,14.03
2018-09-12T03:44:28.505Z,14.05
2018-09-12T03:46:57.657Z,14.05
2018-09-12T03:49:26.846Z,14.02
2018-09-12T03:51:55.992Z,14.02
2018-09-12T03:54:25.128Z,13.98
2018-09-12T03:56:54.514Z,13.93
2018-09-12T03:59:23.784Z,13.87
2018-09-12T04:01:53.054Z,13.84
2018-09-12T04:04:22.261Z,13.82
2018-09-12T04:06:51.499Z,13.77
2018-09-12T04:09:20.676Z,13.63
2018-09-12T04:11:49.923Z,13.52
2018-09-12T04:14:19.088Z,13.45
2018-09-12T04:16:48.325Z,13.44
2018-09-12T04:19:17.421Z,13.47
2018-09-12T04:21:46.641Z,13.50
2018-09-12T04:24:15.907Z,13.51
2018-09-12T04:26:45.202Z,13.53
2018-09-12T04:29:14.398Z,13.57
2018-09-12T04:31:43.694Z,13.59
2018-09-12T04:34:12.949Z,13.61
2018-09-12T04:36:42.113Z,13.63
2018-09-12T04:39:12.648Z,13.63
2018-09-12T04:41:41.851Z,13.58
2018-09-12T04:44:11.044Z,13.52
2018-09-12T04:46:40.249Z,13.46
2018-09-12T04:49:09.663Z,13.46
2018-09-12T04:51:38.870Z,13.47
2018-09-12T04:54:08.239Z,13.47
2018-09-12T04:56:37.373Z,13.49
2018-09-12T04:59:06.613Z,13.50
2018-09-12T05:01:35.829Z,13.50
2018-09-12T05:04:05.118Z,13.55
2018-09-12T05:06:34.288Z,13.53
2018-09-12T05:09:03.916Z,13.48
2018-09-12T05:11:33.140Z,13.45
2018-09-12T05:14:02.349Z,13.52
2018-09-12T05:16:31.633Z,13.57
2018-09-12T05:19:00.856Z,13.66
2018-09-12T05:21:30.123Z,13.74
2018-09-12T05:23:59.371Z,13.83
2018-09-12T05:26:28.577Z,13.91
2018-09-12T05:28:57.828Z,14.02
2018-09-12T05:31:27.029Z,14.14
2018-09-12T05:33:56.217Z,14.25
2018-09-12T05:36:25.491Z,14.30
2018-09-12T05:38:54.669Z,14.37
2018-09-12T05:41:23.914Z,14.44
2018-09-12T05:43:53.067Z,14.61
2018-09-12T05:46:22.249Z,14.75
2018-09-12T05:48:51.453Z,14.86
2018-09-12T05:51:20.853Z,14.91
2018-09-12T05:53:50.042Z,14.99
2018-09-12T05:56:19.236Z,15.07
2018-09-12T05:58:48.481Z,15.20
2018-09-12T06:01:17.615Z,15.39
2018-09-12T06:03:46.744Z,15.59
2018-09-12T06:06:16.042Z,15.78
2018-09-12T06:08:45.240Z,15.89
2018-09-12T06:11:14.511Z,15.90
2018-09-12T06:13:43.742Z,15.97
2018-09-12T06:16:12.931Z,16.05
2018-09-12T06:18:42.306Z,16.18
2018-09-12T06:21:11.482Z,16.19
2018-09-12T06:23:40.653Z,16.24
2018-09-12T06:26:10.170Z,16.28
2018-09-12T06:28:40.944Z,16.26
2018-09-12T06:31:11.844Z,16.25
2018-09-12T06:33:42.021Z,16.34
2018-09-12T06:36:11.185Z,16.44
2018-09-12T06:38:40.358Z,16.55
2018-09-12T06:41:09.773Z,16.69
2018-09-12T06:43:38.958Z,16.81
2018-09-12T06:46:08.156Z,16.85
2018-09-12T06:48:37.411Z,16.84
2018-09-12T06:51:06.682Z,16.86
2018-09-12T06:53:35.821Z,16.98
2018-09-12T06:56:05.062Z,17.12
2018-09-12T06:58:34.301Z,17.24
2018-09-12T07:01:03.640Z,17.36
2018-09-12T07:03:33.393Z,17.45
2018-09-12T07:06:02.581Z,17.61
2018-09-12T07:08:31.796Z,17.72
2018-09-12T07:11:01.004Z,17.92
2018-09-12T07:13:30.376Z,18.05
2018-09-12T07:15:59.668Z,18.17
2018-09-12T07:18:28.952Z,18.24
2018-09-12T07:20:58.104Z,18.30
2018-09-12T07:23:27.369Z,18.37
2018-09-12T07:25:56.585Z,18.44
2018-09-12T07:28:25.820Z,18.63
2018-09-12T07:30:54.984Z,18.82
2018-09-12T07:33:24.233Z,19.05
2018-09-12T07:35:53.442Z,19.16
2018-09-12T07:38:22.734Z,19.27
2018-09-12T07:40:51.936Z,19.30
2018-09-12T07:43:21.213Z,19.45
2018-09-12T07:45:50.604Z,19.64
2018-09-12T07:48:19.918Z,19.77
2018-09-12T07:50:50.241Z,19.88
2018-09-12T07:53:20.047Z,20.05
2018-09-12T07:55:49.390Z,20.11
2018-09-12T07:58:18.561Z,20.21
2018-09-12T08:00:47.905Z,20.16
2018-09-12T08:03:17.098Z,20.25
2018-09-12T08:05:46.340Z,20.40
2018-09-12T08:08:15.642Z,20.70
2018-09-12T08:10:44.872Z,20.85
2018-09-12T08:13:14.179Z,20.94
2018-09-12T08:15:43.769Z,20.99
2018-09-12T08:18:14.726Z,21.14
2018-09-12T08:20:44.018Z,21.25
2018-09-12T08:23:13.411Z,21.21
2018-09-12T08:25:42.701Z,21.22
2018-09-12T08:28:12.529Z,21.29
2018-09-12T08:30:44.658Z,21.52
2018-09-12T08:33:13.975Z,21.69
2018-09-12T08:35:43.186Z,21.93
2018-09-12T08:38:12.413Z,22.26
2018-09-12T08:40:41.673Z,22.42
2018-09-12T08:43:10.958Z,22.49
2018-09-12T08:45:40.328Z,22.81
2018-09-12T08:48:09.587Z,23.02
2018-09-12T08:50:38.780Z,23.22
2018-09-12T08:53:08.892Z,23.57
2018-09-12T08:55:38.214Z,23.72
2018-09-12T08:58:07.493Z,23.63
2018-09-12T09:00:36.801Z,23.65
2018-09-12T09:03:07.425Z,23.82
2018-09-12T09:05:36.658Z,23.69
2018-09-12T09:08:05.848Z,23.75
2018-09-12T09:10:35.170Z,23.70
2018-09-12T09:13:04.321Z,23.93
2018-09-12T09:15:33.498Z,24.37
2018-09-12T09:18:02.970Z,24.36
2018-09-12T09:20:32.290Z,24.62
2018-09-12T09:23:01.502Z,24.97
2018-09-12T09:25:31.435Z,25.22
2018-09-12T09:28:00.786Z,25.38
2018-09-12T09:30:31.894Z,25.42
2018-09-12T09:33:01.173Z,25.48
2018-09-12T09:35:31.265Z,25.77
2018-09-12T09:38:01.076Z,26.07
2018-09-12T09:40:30.312Z,26.15
2018-09-12T09:42:59.578Z,26.16
2018-09-12T09:45:28.922Z,25.82
2018-09-12T09:47:58.275Z,25.90
2018-09-12T09:50:27.478Z,25.87
2018-09-12T09:52:56.630Z,25.86
2018-09-12T09:55:25.862Z,26.25
2018-09-12T09:57:55.329Z,26.51
2018-09-12T10:00:29.962Z,26.45
2018-09-12T10:03:04.571Z,26.67
2018-09-12T10:05:39.060Z,26.67
2018-09-12T10:09:11.964Z,26.92
2018-09-12T10:11:41.319Z,26.92
2018-09-12T10:14:10.636Z,27.05
2018-09-12T10:16:39.913Z,27.17
2018-09-12T10:19:09.349Z,27.39
2018-09-12T10:21:38.619Z,27.60
2018-09-12T10:24:07.846Z,27.37
2018-09-12T10:26:37.130Z,27.54
2018-09-12T10:29:06.578Z,27.51
2018-09-12T10:31:35.810Z,27.69
2018-09-12T10:34:05.116Z,27.78
2018-09-12T10:36:34.359Z,27.79
2018-09-12T10:39:03.698Z,27.83
2018-09-12T10:41:33.101Z,28.07
2018-09-12T10:44:02.417Z,28.36
2018-09-12T10:46:31.594Z,28.62
2018-09-12T10:49:01.406Z,28.85
2018-09-12T10:51:30.516Z,28.94
2018-09-12T10:53:59.952Z,29.03
2018-09-12T10:56:29.537Z,29.26
2018-09-12T10:58:58.964Z,29.43
2018-09-12T11:01:28.101Z,29.33
2018-09-12T11:03:57.399Z,29.34
2018-09-12T11:06:26.675Z,29.58
2018-09-12T11:08:55.998Z,29.58
2018-09-12T11:11:25.268Z,29.31
2018-09-12T11:13:54.496Z,29.18
2018-09-12T11:16:23.732Z,29.27
2018-09-12T11:18:53.113Z,29.30
2018-09-12T11:21:22.441Z,29.44
2018-09-12T11:23:51.815Z,29.57
2018-09-12T11:26:21.161Z,29.68
2018-09-12T11:28:50.815Z,29.68
2018-09-12T11:31:19.999Z,29.53
2018-09-12T11:33:49.339Z,29.33
2018-09-12T11:36:19.554Z,29.63
2018-09-12T11:38:48.809Z,29.60
2018-09-12T11:41:18.152Z,29.61
2018-09-12T11:43:47.357Z,29.81
2018-09-12T11:46:16.555Z,29.77
2018-09-12T11:48:45.852Z,30.00
2018-09-12T11:51:15.096Z,30.20
2018-09-12T11:53:44.370Z,30.20
2018-09-12T11:56:13.675Z,30.15
2018-09-12T11:58:42.922Z,30.18
2018-09-12T12:01:12.146Z,30.41
2018-09-12T12:03:41.425Z,30.54
2018-09-12T12:06:10.938Z,30.71
2018-09-12T12:08:40.269Z,30.77
2018-09-12T12:11:10.141Z,30.92
2018-09-12T12:13:39.314Z,30.92
2018-09-12T12:16:08.551Z,30.91
2018-09-12T12:18:37.754Z,30.91
2018-09-12T12:21:07.186Z,30.82
2018-09-12T12:23:36.442Z,30.85
2018-09-12T12:26:06.021Z,30.80
2018-09-12T12:28:35.249Z,30.73
2018-09-12T12:31:04.590Z,30.96
2018-09-12T12:33:33.793Z,30.97
2018-09-12T12:36:03.181Z,31.22
2018-09-12T12:38:32.583Z,31.19
2018-09-12T12:41:01.889Z,31.38
2018-09-12T12:43:31.217Z,31.56
2018-09-12T12:46:00.516Z,31.55
2018-09-12T12:48:29.693Z,31.51
2018-09-12T12:50:58.924Z,31.51
2018-09-12T12:53:28.053Z,31.45
2018-09-12T12:55:57.453Z,31.54
2018-09-12T12:58:26.762Z,31.10
2018-09-12T13:00:56.444Z,30.77
2018-09-12T13:03:25.716Z,30.83
2018-09-12T13:05:54.992Z,30.93
2018-09-12T13:08:24.273Z,30.89
2018-09-12T13:10:53.539Z,30.82
2018-09-12T13:13:22.740Z,30.79
2018-09-12T13:15:52.320Z,30.85
2018-09-12T13:18:22.189Z,30.93
2018-09-12T13:20:51.597Z,30.98
2018-09-12T13:23:20.823Z,30.97
2018-09-12T13:25:50.014Z,31.08
2018-09-12T13:28:22.380Z,31.00
2018-09-12T13:30:51.633Z,31.04
2018-09-12T13:33:20.967Z,30.96
2018-09-12T13:35:50.204Z,30.99
2018-09-12T13:38:19.487Z,31.09
2018-09-12T13:40:49.125Z,31.10
2018-09-12T13:43:18.650Z,30.99
2018-09-12T13:45:47.960Z,31.03
2018-09-12T13:48:18.838Z,30.94
2018-09-12T13:50:48.003Z,30.89
2018-09-12T13:53:17.237Z,30.77
2018-09-12T13:55:46.593Z,30.78
2018-09-12T13:58:15.842Z,30.65
2018-09-12T14:00:47.505Z,30.71
2018-09-12T14:03:16.735Z,30.58
2018-09-12T14:05:45.993Z,30.56
2018-09-12T14:08:15.318Z,30.62
2018-09-12T14:10:45.470Z,30.57
2018-09-12T14:13:14.681Z,30.61
2018-09-12T14:15:43.989Z,30.46
2018-09-12T14:18:13.212Z,30.50
2018-09-12T14:20:42.397Z,30.44
2018-09-12T14:23:11.707Z,30.42
2018-09-12T14:25:40.929Z,30.45
2018-09-12T14:28:10.259Z,30.43
2018-09-12T14:30:39.821Z,30.31
2018-09-12T14:33:09.212Z,30.34
2018-09-12T14:35:38.728Z,30.20
2018-09-12T14:38:08.021Z,30.07
2018-09-12T14:40:37.333Z,29.99
2018-09-12T14:43:06.837Z,29.98
2018-09-12T14:45:36.054Z,29.96
2018-09-12T14:48:05.305Z,29.92
2018-09-12T14:50:34.559Z,29.87
2018-09-12T14:53:03.729Z,29.79
2018-09-12T14:55:32.884Z,29.78
2018-09-12T14:58:02.120Z,29.73
2018-09-12T15:00:31.250Z,29.72
2018-09-12T15:03:00.957Z,29.66
2018-09-12T15:05:30.371Z,29.58
2018-09-12T15:07:59.613Z,29.53
2018-09-12T15:10:28.808Z,29.48
2018-09-12T15:12:58.268Z,29.46
2018-09-12T15:15:27.615Z,29.39
2018-09-12T15:17:56.921Z,29.31
2018-09-12T15:20:26.408Z,29.25
2018-09-12T15:22:55.613Z,29.22
2018-09-12T15:25:24.833Z,29.11
2018-09-12T15:27:54.042Z,29.05
2018-09-12T15:30:24.243Z,29.07
2018-09-12T15:32:53.565Z,29.10
2018-09-12T15:35:22.794Z,29.06
2018-09-12T15:37:52.182Z,29.07
2018-09-12T15:40:21.440Z,28.98
2018-09-12T15:42:50.659Z,28.92
2018-09-12T15:45:20.063Z,28.84
2018-09-12T15:47:49.311Z,28.72
2018-09-12T15:50:18.532Z,28.70
2018-09-12T15:52:47.836Z,28.65
2018-09-12T15:55:17.033Z,28.58
2018-09-12T15:57:46.204Z,28.55
2018-09-12T16:00:15.508Z,28.52
2018-09-12T16:02:44.741Z,28.44
2018-09-12T16:05:14.718Z,28.38
2018-09-12T16:07:44.123Z,28.30
2018-09-12T16:10:13.957Z,28.21
2018-09-12T16:12:43.287Z,28.15
2018-09-12T16:15:12.660Z,28.09
2018-09-12T16:17:41.830Z,28.02
2018-09-12T16:20:11.177Z,27.95
2018-09-12T16:22:40.384Z,27.81
2018-09-12T16:25:10.091Z,27.69
2018-09-12T16:27:39.997Z,27.55
2018-09-12T16:30:09.608Z,27.47
2018-09-12T16:32:38.881Z,27.36
2018-09-12T16:35:08.142Z,27.24
2018-09-12T16:37:37.876Z,27.14
2018-09-12T16:40:07.284Z,27.05
2018-09-12T16:42:36.473Z,26.95
2018-09-12T16:45:07.277Z,26.84
2018-09-12T16:47:36.558Z,26.74
2018-09-12T16:50:06.268Z,26.63
2018-09-12T16:52:35.551Z,26.50
2018-09-12T16:55:05.499Z,26.39
2018-09-12T16:57:34.806Z,26.26
2018-09-12T17:00:04.074Z,26.14
2018-09-12T17:02:33.275Z,26.05
2018-09-12T17:05:02.869Z,25.96
2018-09-12T17:07:32.233Z,25.87
2018-09-12T17:10:01.523Z,25.76
2018-09-12T17:12:30.668Z,25.64
2018-09-12T17:14:59.934Z,25.51
2018-09-12T17:17:29.159Z,25.38
2018-09-12T17:19:58.366Z,25.20
2018-09-12T17:22:27.650Z,25.06
2018-09-12T17:24:57.332Z,24.87
2018-09-12T17:27:27.299Z,24.66
2018-09-12T17:29:57.245Z,24.49
2018-09-12T17:32:26.557Z,24.36
2018-09-12T17:34:56.580Z,24.23
2018-09-12T17:37:25.939Z,24.10
2018-09-12T17:39:55.201Z,23.95
2018-09-12T17:42:24.448Z,23.68
2018-09-12T17:44:53.970Z,23.47
2018-09-12T17:47:23.302Z,23.37
2018-09-12T17:49:52.563Z,23.24
2018-09-12T17:52:21.837Z,23.10
2018-09-12T17:54:51.184Z,22.96
2018-09-12T17:57:20.476Z,22.88
2018-09-12T17:59:49.785Z,22.79
2018-09-12T18:02:19.053Z,22.66
2018-09-12T18:04:48.802Z,22.60
2018-09-12T18:07:18.554Z,22.49
2018-09-12T18:09:47.755Z,22.39
2018-09-12T18:12:17.145Z,22.26
2018-09-12T18:14:46.465Z,22.14
2018-09-12T18:17:15.910Z,22.03
2018-09-12T18:19:45.208Z,21.96
2018-09-12T18:22:14.700Z,21.87
2018-09-12T18:24:43.977Z,21.78
2018-09-12T18:27:13.149Z,21.70
2018-09-12T18:29:42.474Z,21.63
2018-09-12T18:32:11.694Z,21.57
2018-09-12T18:34:40.840Z,21.52
2018-09-12T18:37:11.131Z,21.50
2018-09-12T18:39:40.317Z,21.47
2018-09-12T18:42:09.840Z,21.36
2018-09-12T18:44:39.444Z,21.29
2018-09-12T18:47:08.745Z,21.23
2018-09-12T18:49:37.967Z,21.16
2018-09-12T18:52:07.146Z,21.05
2018-09-12T18:54:36.295Z,21.02
2018-09-12T18:57:06.156Z,20.95
2018-09-12T18:59:35.351Z,20.87
2018-09-12T19:02:04.474Z,20.78
2018-09-12T19:04:33.621Z,20.75
2018-09-12T19:07:02.950Z,20.72
2018-09-12T19:09:32.030Z,20.36
2018-09-12T19:12:01.184Z,20.63
2018-09-12T19:14:30.445Z,20.56
2018-09-12T19:16:59.635Z,20.49
2018-09-12T19:19:28.801Z,20.41
2018-09-12T19:21:58.014Z,20.35
2018-09-12T19:24:27.220Z,20.30
2018-09-12T19:26:56.409Z,20.25
2018-09-12T19:29:25.609Z,20.19
2018-09-12T19:31:54.905Z,20.16
2018-09-12T19:34:24.132Z,20.11
2018-09-12T19:36:53.340Z,20.09
2018-09-12T19:39:22.531Z,20.04
2018-09-12T19:41:51.879Z,19.99
2018-09-12T19:44:21.095Z,19.97
2018-09-12T19:46:50.275Z,19.91
2018-09-12T19:49:19.454Z,19.83
2018-09-12T19:51:48.697Z,19.73
2018-09-12T19:54:17.891Z,19.66
2018-09-12T19:56:47.115Z,19.63
2018-09-12T19:59:16.498Z,19.59
2018-09-12T20:01:45.716Z,19.56
2018-09-12T20:04:14.852Z,19.45
2018-09-12T20:06:44.015Z,19.39
2018-09-12T20:09:13.169Z,19.31
2018-09-12T20:11:42.379Z,19.25
2018-09-12T20:14:11.726Z,19.15
2018-09-12T20:16:40.886Z,19.12
2018-09-12T20:19:10.809Z,19.07
2018-09-12T20:21:40.064Z,19.01
2018-09-12T20:24:09.461Z,18.85
2018-09-12T20:26:38.696Z,18.82
2018-09-12T20:29:08.231Z,18.78
2018-09-12T20:31:37.405Z,18.73
2018-09-12T20:34:06.739Z,18.69
2018-09-12T20:36:35.914Z,18.65
2018-09-12T20:39:08.471Z,18.65
2018-09-12T20:41:37.642Z,18.64
2018-09-12T20:44:06.929Z,18.63
2018-09-12T20:46:36.123Z,18.58
2018-09-12T20:49:05.324Z,18.55
2018-09-12T20:51:34.523Z,18.56
2018-09-12T20:54:03.740Z,18.58
2018-09-12T20:56:32.949Z,18.56
2018-09-12T20:59:02.102Z,18.51
2018-09-12T21:01:31.287Z,18.48
2018-09-12T21:04:00.460Z,18.46
2018-09-12T21:06:31.057Z,18.41
2018-09-12T21:09:00.225Z,18.35
2018-09-12T21:11:29.720Z,18.30
2018-09-12T21:13:58.870Z,18.24
2018-09-12T21:16:28.102Z,18.18
2018-09-12T21:18:58.117Z,18.13
2018-09-12T21:21:27.293Z,18.08
2018-09-12T21:23:56.465Z,18.07
2018-09-12T21:26:25.868Z,18.02
2018-09-12T21:28:55.149Z,17.97
2018-09-12T21:31:24.334Z,17.92
2018-09-12T21:33:53.869Z,17.86
2018-09-12T21:36:23.389Z,17.83
2018-09-12T21:38:52.747Z,17.81
2018-09-12T21:41:22.025Z,17.82
2018-09-12T21:43:51.314Z,17.81
2018-09-12T21:46:20.437Z,17.80
2018-09-12T21:48:49.979Z,17.78
2018-09-12T21:51:19.123Z,17.75
2018-09-12T21:53:48.288Z,17.66
2018-09-12T21:56:17.701Z,17.58
2018-09-12T21:58:46.877Z,17.43
2018-09-12T22:01:19.656Z,17.36
2018-09-12T22:03:48.792Z,17.29
2018-09-12T22:06:17.977Z,17.29
2018-09-12T22:08:47.176Z,17.28
2018-09-12T22:11:16.352Z,17.26
2018-09-12T22:13:45.504Z,17.23
2018-09-12T22:16:14.700Z,17.20
2018-09-12T22:18:43.817Z,17.13
2018-09-12T22:21:13.049Z,17.08
2018-09-12T22:23:42.318Z,17.05
2018-09-12T22:26:11.554Z,17.09
2018-09-12T22:28:41.599Z,17.06
2018-09-12T22:31:11.545Z,16.94
2018-09-12T22:33:40.679Z,16.96
2018-09-12T22:36:09.853Z,16.89
2018-09-12T22:38:39.018Z,16.89
2018-09-12T22:41:08.412Z,16.84
2018-09-12T22:43:37.628Z,16.77
2018-09-12T22:46:06.853Z,16.75
2018-09-12T22:48:36.009Z,16.77
2018-09-12T22:51:09.285Z,16.81
2018-09-12T22:53:39.198Z,16.83
2018-09-12T22:56:08.457Z,16.78
2018-09-12T22:58:37.632Z,16.75
2018-09-12T23:01:06.836Z,16.78
2018-09-12T23:03:35.992Z,16.79
2018-09-12T23:06:05.237Z,16.78
2018-09-12T23:08:34.793Z,16.72
2018-09-12T23:11:03.986Z,16.68
2018-09-12T23:13:33.200Z,16.63
2018-09-12T23:16:02.354Z,16.61
2018-09-12T23:18:31.494Z,16.57
2018-09-12T23:21:00.653Z,16.55
2018-09-12T23:23:29.778Z,16.53
2018-09-12T23:25:58.969Z,16.48
2018-09-12T23:28:28.261Z,16.45
2018-09-12T23:30:57.485Z,16.39
2018-09-12T23:33:26.829Z,16.29
2018-09-12T23:35:56.057Z,16.18
2018-09-12T23:38:26.207Z,16.13
2018-09-12T23:40:55.405Z,16.13
2018-09-12T23:43:24.635Z,16.14
2018-09-12T23:45:53.868Z,16.17
2018-09-12T23:48:23.051Z,16.19
2018-09-12T23:50:52.224Z,16.19
2018-09-12T23:53:21.404Z,16.18
2018-09-12T23:55:50.576Z,16.16
2018-09-12T23:58:19.749Z,16.12
